sensor_id;sensor_type;location;lat;lon;timestamp;P1;durP1;ratioP1;P2;durP2;ratioP2
69991;SDS011;57332;51.320;-0.580;2024-01-25T00:00:48;11.35;;;2.83;;
69991;SDS011;57332;51.320;-0.580;2024-01-25T00:03:15;16.65;;;3.20;;
69991;SDS011;57332;51.320;-0.580;2024-01-25T00:05:43;14.25;;;4.57;;
69991;SDS011;57332;51.320;-0.580;2024-01-25T00:08:10;16.55;;;4.97;;
69991;SDS011;57332;51.320;-0.580;2024-01-25T00:10:37;13.82;;;4.18;;
69991;SDS011;57332;51.320;-0.580;2024-01-25T00:13:03;14.50;;;4.07;;
69991;SDS011;57332;51.320;-0.580;2024-01-25T00:15:30;13.27;;;3.70;;
69991;SDS011;57332;51.320;-0.580;2024-01-25T00:17:57;10.43;;;3.28;;
69991;SDS011;57332;51.320;-0.580;2024-01-25T00:20:24;11.82;;;3.47;;
69991;SDS011;57332;51.320;-0.580;2024-01-25T00:22:51;12.85;;;3.40;;
69991;SDS011;57332;51.320;-0.580;2024-01-25T00:25:18;11.07;;;3.45;;
69991;SDS011;57332;51.320;-0.580;2024-01-25T00:27:45;7.72;;;3.03;;
69991;SDS011;57332;51.320;-0.580;2024-01-25T00:30:14;10.65;;;3.20;;
69991;SDS011;57332;51.320;-0.580;2024-01-25T00:32:41;14.73;;;3.63;;
69991;SDS011;57332;51.320;-0.580;2024-01-25T00:35:08;11.90;;;3.58;;
69991;SDS011;57332;51.320;-0.580;2024-01-25T00:37:37;11.98;;;3.50;;
69991;SDS011;57332;51.320;-0.580;2024-01-25T00:40:04;8.00;;;3.05;;
69991;SDS011;57332;51.320;-0.580;2024-01-25T00:42:31;11.75;;;3.15;;
69991;SDS011;57332;51.320;-0.580;2024-01-25T00:45:01;9.70;;;3.35;;
69991;SDS011;57332;51.320;-0.580;2024-01-25T00:47:28;10.85;;;3.42;;
69991;SDS011;57332;51.320;-0.580;2024-01-25T00:49:55;10.98;;;3.20;;
69991;SDS011;57332;51.320;-0.580;2024-01-25T00:52:23;13.27;;;3.13;;
69991;SDS011;57332;51.320;-0.580;2024-01-25T00:54:51;10.23;;;3.25;;
69991;SDS011;57332;51.320;-0.580;2024-01-25T00:57:18;10.27;;;2.65;;
69991;SDS011;57332;51.320;-0.580;2024-01-25T00:59:45;12.70;;;3.40;;
69991;SDS011;57332;51.320;-0.580;2024-01-25T01:02:12;7.93;;;3.13;;
69991;SDS011;57332;51.320;-0.580;2024-01-25T01:04:40;14.82;;;3.80;;
69991;SDS011;57332;51.320;-0.580;2024-01-25T01:07:14;15.90;;;3.70;;
69991;SDS011;57332;51.320;-0.580;2024-01-25T01:09:42;11.73;;;3.50;;
69991;SDS011;57332;51.320;-0.580;2024-01-25T01:12:09;11.93;;;3.15;;
69991;SDS011;57332;51.320;-0.580;2024-01-25T01:14:35;15.05;;;3.65;;
69991;SDS011;57332;51.320;-0.580;2024-01-25T01:17:02;12.00;;;3.55;;
69991;SDS011;57332;51.320;-0.580;2024-01-25T01:19:29;11.27;;;3.42;;
69991;SDS011;57332;51.320;-0.580;2024-01-25T01:21:56;10.80;;;2.90;;
69991;SDS011;57332;51.320;-0.580;2024-01-25T01:24:23;13.45;;;3.10;;
69991;SDS011;57332;51.320;-0.580;2024-01-25T01:26:50;11.88;;;3.25;;
69991;SDS011;57332;51.320;-0.580;2024-01-25T01:29:17;10.18;;;3.58;;
69991;SDS011;57332;51.320;-0.580;2024-01-25T01:31:45;12.68;;;3.25;;
69991;SDS011;57332;51.320;-0.580;2024-01-25T01:34:12;8.30;;;3.25;;
69991;SDS011;57332;51.320;-0.580;2024-01-25T01:36:40;10.18;;;3.08;;
69991;SDS011;57332;51.320;-0.580;2024-01-25T01:39:07;10.30;;;2.67;;
69991;SDS011;57332;51.320;-0.580;2024-01-25T01:41:34;11.07;;;2.90;;
69991;SDS011;57332;51.320;-0.580;2024-01-25T01:44:01;11.70;;;3.03;;
69991;SDS011;57332;51.320;-0.580;2024-01-25T01:46:32;10.75;;;2.58;;
69991;SDS011;57332;51.320;-0.580;2024-01-25T01:49:01;10.02;;;2.80;;
69991;SDS011;57332;51.320;-0.580;2024-01-25T01:51:29;12.13;;;2.90;;
69991;SDS011;57332;51.320;-0.580;2024-01-25T01:53:57;9.23;;;2.75;;
69991;SDS011;57332;51.320;-0.580;2024-01-25T01:56:26;8.57;;;2.53;;
69991;SDS011;57332;51.320;-0.580;2024-01-25T01:58:54;7.65;;;3.30;;
69991;SDS011;57332;51.320;-0.580;2024-01-25T02:01:22;6.82;;;2.75;;
69991;SDS011;57332;51.320;-0.580;2024-01-25T02:03:50;10.77;;;2.45;;
69991;SDS011;57332;51.320;-0.580;2024-01-25T02:06:18;12.48;;;2.40;;
69991;SDS011;57332;51.320;-0.580;2024-01-25T02:08:45;12.68;;;2.55;;
69991;SDS011;57332;51.320;-0.580;2024-01-25T02:11:12;10.73;;;2.22;;
69991;SDS011;57332;51.320;-0.580;2024-01-25T02:13:40;8.50;;;2.67;;
69991;SDS011;57332;51.320;-0.580;2024-01-25T02:16:07;9.60;;;2.63;;
69991;SDS011;57332;51.320;-0.580;2024-01-25T02:18:34;13.50;;;2.17;;
69991;SDS011;57332;51.320;-0.580;2024-01-25T02:21:01;7.05;;;2.28;;
69991;SDS011;57332;51.320;-0.580;2024-01-25T02:23:28;12.13;;;2.70;;
69991;SDS011;57332;51.320;-0.580;2024-01-25T02:25:55;12.23;;;2.03;;
69991;SDS011;57332;51.320;-0.580;2024-01-25T02:28:22;10.30;;;2.88;;
69991;SDS011;57332;51.320;-0.580;2024-01-25T02:30:49;9.90;;;2.50;;
69991;SDS011;57332;51.320;-0.580;2024-01-25T02:33:17;6.05;;;2.28;;
69991;SDS011;57332;51.320;-0.580;2024-01-25T02:35:44;11.18;;;2.58;;
69991;SDS011;57332;51.320;-0.580;2024-01-25T02:38:11;7.03;;;2.42;;
69991;SDS011;57332;51.320;-0.580;2024-01-25T02:40:38;11.88;;;2.60;;
69991;SDS011;57332;51.320;-0.580;2024-01-25T02:43:04;8.98;;;1.77;;
69991;SDS011;57332;51.320;-0.580;2024-01-25T02:45:31;11.45;;;2.35;;
69991;SDS011;57332;51.320;-0.580;2024-01-25T02:47:58;13.80;;;2.42;;
69991;SDS011;57332;51.320;-0.580;2024-01-25T02:50:26;11.52;;;2.45;;
69991;SDS011;57332;51.320;-0.580;2024-01-25T02:52:53;7.60;;;2.40;;
69991;SDS011;57332;51.320;-0.580;2024-01-25T02:55:20;12.00;;;2.30;;
69991;SDS011;57332;51.320;-0.580;2024-01-25T02:57:47;11.60;;;2.42;;
69991;SDS011;57332;51.320;-0.580;2024-01-25T03:00:14;14.45;;;2.35;;
69991;SDS011;57332;51.320;-0.580;2024-01-25T03:02:41;11.07;;;2.20;;
69991;SDS011;57332;51.320;-0.580;2024-01-25T03:05:08;19.90;;;2.78;;
69991;SDS011;57332;51.320;-0.580;2024-01-25T03:07:35;10.55;;;2.42;;
69991;SDS011;57332;51.320;-0.580;2024-01-25T03:10:02;15.07;;;2.97;;
69991;SDS011;57332;51.320;-0.580;2024-01-25T03:12:29;9.43;;;2.03;;
69991;SDS011;57332;51.320;-0.580;2024-01-25T03:14:56;9.05;;;2.42;;
69991;SDS011;57332;51.320;-0.580;2024-01-25T03:17:23;10.88;;;2.47;;
69991;SDS011;57332;51.320;-0.580;2024-01-25T03:19:50;13.02;;;2.15;;
69991;SDS011;57332;51.320;-0.580;2024-01-25T03:22:17;15.80;;;2.30;;
69991;SDS011;57332;51.320;-0.580;2024-01-25T03:24:44;10.93;;;2.30;;
69991;SDS011;57332;51.320;-0.580;2024-01-25T03:27:11;12.15;;;2.75;;
69991;SDS011;57332;51.320;-0.580;2024-01-25T03:29:40;9.57;;;2.15;;
69991;SDS011;57332;51.320;-0.580;2024-01-25T03:32:08;14.07;;;2.50;;
69991;SDS011;57332;51.320;-0.580;2024-01-25T03:34:34;9.38;;;2.05;;
69991;SDS011;57332;51.320;-0.580;2024-01-25T03:37:01;6.90;;;1.88;;
69991;SDS011;57332;51.320;-0.580;2024-01-25T03:39:28;10.98;;;2.40;;
69991;SDS011;57332;51.320;-0.580;2024-01-25T03:41:55;11.60;;;2.70;;
69991;SDS011;57332;51.320;-0.580;2024-01-25T03:44:23;13.38;;;2.63;;
69991;SDS011;57332;51.320;-0.580;2024-01-25T03:46:50;12.63;;;2.50;;
69991;SDS011;57332;51.320;-0.580;2024-01-25T03:49:17;10.20;;;2.08;;
69991;SDS011;57332;51.320;-0.580;2024-01-25T03:51:45;12.25;;;2.35;;
69991;SDS011;57332;51.320;-0.580;2024-01-25T03:54:12;11.27;;;2.47;;
69991;SDS011;57332;51.320;-0.580;2024-01-25T03:56:39;13.95;;;2.92;;
69991;SDS011;57332;51.320;-0.580;2024-01-25T03:59:06;17.40;;;2.88;;
69991;SDS011;57332;51.320;-0.580;2024-01-25T04:01:43;12.85;;;2.53;;
69991;SDS011;57332;51.320;-0.580;2024-01-25T04:04:11;19.15;;;2.92;;
69991;SDS011;57332;51.320;-0.580;2024-01-25T04:06:40;12.88;;;2.38;;
69991;SDS011;57332;51.320;-0.580;2024-01-25T04:09:07;14.10;;;2.83;;
69991;SDS011;57332;51.320;-0.580;2024-01-25T04:11:35;12.05;;;2.30;;
69991;SDS011;57332;51.320;-0.580;2024-01-25T04:14:02;12.95;;;2.53;;
69991;SDS011;57332;51.320;-0.580;2024-01-25T04:16:29;16.15;;;2.30;;
69991;SDS011;57332;51.320;-0.580;2024-01-25T04:18:57;11.07;;;1.95;;
69991;SDS011;57332;51.320;-0.580;2024-01-25T04:21:24;13.18;;;2.35;;
69991;SDS011;57332;51.320;-0.580;2024-01-25T04:23:51;12.05;;;2.10;;
69991;SDS011;57332;51.320;-0.580;2024-01-25T04:26:18;13.65;;;2.80;;
69991;SDS011;57332;51.320;-0.580;2024-01-25T04:28:45;15.00;;;2.67;;
69991;SDS011;57332;51.320;-0.580;2024-01-25T04:31:11;8.23;;;2.45;;
69991;SDS011;57332;51.320;-0.580;2024-01-25T04:33:38;18.63;;;2.63;;
69991;SDS011;57332;51.320;-0.580;2024-01-25T04:36:11;12.57;;;2.45;;
69991;SDS011;57332;51.320;-0.580;2024-01-25T04:38:38;11.10;;;2.25;;
69991;SDS011;57332;51.320;-0.580;2024-01-25T04:41:05;12.05;;;2.45;;
69991;SDS011;57332;51.320;-0.580;2024-01-25T04:43:36;13.48;;;2.42;;
69991;SDS011;57332;51.320;-0.580;2024-01-25T04:46:03;9.82;;;1.92;;
69991;SDS011;57332;51.320;-0.580;2024-01-25T04:48:30;20.90;;;2.40;;
69991;SDS011;57332;51.320;-0.580;2024-01-25T04:50:58;13.48;;;2.40;;
69991;SDS011;57332;51.320;-0.580;2024-01-25T04:53:25;11.23;;;2.45;;
69991;SDS011;57332;51.320;-0.580;2024-01-25T04:55:53;18.42;;;2.55;;
69991;SDS011;57332;51.320;-0.580;2024-01-25T04:58:20;12.05;;;2.10;;
69991;SDS011;57332;51.320;-0.580;2024-01-25T05:00:48;13.25;;;2.35;;
69991;SDS011;57332;51.320;-0.580;2024-01-25T05:03:15;11.63;;;2.60;;
69991;SDS011;57332;51.320;-0.580;2024-01-25T05:05:41;11.95;;;2.50;;
69991;SDS011;57332;51.320;-0.580;2024-01-25T05:08:08;11.38;;;1.95;;
69991;SDS011;57332;51.320;-0.580;2024-01-25T05:10:35;9.57;;;2.17;;
69991;SDS011;57332;51.320;-0.580;2024-01-25T05:13:02;12.05;;;2.22;;
69991;SDS011;57332;51.320;-0.580;2024-01-25T05:15:29;17.35;;;2.33;;
69991;SDS011;57332;51.320;-0.580;2024-01-25T05:17:57;15.23;;;2.92;;
69991;SDS011;57332;51.320;-0.580;2024-01-25T05:20:24;16.50;;;2.72;;
69991;SDS011;57332;51.320;-0.580;2024-01-25T05:22:59;10.63;;;2.53;;
69991;SDS011;57332;51.320;-0.580;2024-01-25T05:25:27;14.45;;;2.42;;
69991;SDS011;57332;51.320;-0.580;2024-01-25T05:27:55;13.27;;;2.53;;
69991;SDS011;57332;51.320;-0.580;2024-01-25T05:30:23;15.38;;;2.50;;
69991;SDS011;57332;51.320;-0.580;2024-01-25T05:32:51;11.23;;;2.40;;
69991;SDS011;57332;51.320;-0.580;2024-01-25T05:35:20;13.23;;;2.55;;
69991;SDS011;57332;51.320;-0.580;2024-01-25T05:37:47;13.07;;;2.85;;
69991;SDS011;57332;51.320;-0.580;2024-01-25T05:40:14;13.80;;;2.45;;
69991;SDS011;57332;51.320;-0.580;2024-01-25T05:42:41;13.73;;;2.72;;
69991;SDS011;57332;51.320;-0.580;2024-01-25T05:45:08;12.45;;;2.22;;
69991;SDS011;57332;51.320;-0.580;2024-01-25T05:47:36;18.92;;;3.08;;
69991;SDS011;57332;51.320;-0.580;2024-01-25T05:50:03;17.17;;;2.50;;
69991;SDS011;57332;51.320;-0.580;2024-01-25T05:52:31;12.35;;;2.47;;
69991;SDS011;57332;51.320;-0.580;2024-01-25T05:54:58;16.58;;;2.95;;
69991;SDS011;57332;51.320;-0.580;2024-01-25T05:57:31;16.60;;;2.58;;
69991;SDS011;57332;51.320;-0.580;2024-01-25T05:59:58;9.65;;;2.40;;
69991;SDS011;57332;51.320;-0.580;2024-01-25T06:02:25;13.70;;;2.50;;
69991;SDS011;57332;51.320;-0.580;2024-01-25T06:04:52;13.73;;;2.60;;
69991;SDS011;57332;51.320;-0.580;2024-01-25T06:07:19;11.77;;;2.58;;
69991;SDS011;57332;51.320;-0.580;2024-01-25T06:09:47;12.35;;;2.45;;
69991;SDS011;57332;51.320;-0.580;2024-01-25T06:12:14;15.27;;;2.72;;
69991;SDS011;57332;51.320;-0.580;2024-01-25T06:14:41;11.00;;;2.38;;
69991;SDS011;57332;51.320;-0.580;2024-01-25T06:17:08;13.45;;;2.13;;
69991;SDS011;57332;51.320;-0.580;2024-01-25T06:19:35;13.43;;;2.28;;
69991;SDS011;57332;51.320;-0.580;2024-01-25T06:22:02;8.90;;;2.03;;
69991;SDS011;57332;51.320;-0.580;2024-01-25T06:24:29;10.45;;;2.08;;
69991;SDS011;57332;51.320;-0.580;2024-01-25T06:26:57;12.32;;;2.30;;
69991;SDS011;57332;51.320;-0.580;2024-01-25T06:29:24;10.23;;;2.15;;
69991;SDS011;57332;51.320;-0.580;2024-01-25T06:31:50;13.95;;;2.20;;
69991;SDS011;57332;51.320;-0.580;2024-01-25T06:34:18;10.90;;;2.13;;
69991;SDS011;57332;51.320;-0.580;2024-01-25T06:36:45;14.68;;;2.13;;
69991;SDS011;57332;51.320;-0.580;2024-01-25T06:39:12;11.80;;;1.90;;
69991;SDS011;57332;51.320;-0.580;2024-01-25T06:41:39;9.77;;;2.22;;
69991;SDS011;57332;51.320;-0.580;2024-01-25T06:44:06;9.73;;;2.03;;
69991;SDS011;57332;51.320;-0.580;2024-01-25T06:46:33;7.53;;;1.45;;
69991;SDS011;57332;51.320;-0.580;2024-01-25T06:49:00;9.25;;;1.70;;
69991;SDS011;57332;51.320;-0.580;2024-01-25T06:51:27;8.77;;;1.63;;
69991;SDS011;57332;51.320;-0.580;2024-01-25T06:53:54;10.48;;;1.45;;
69991;SDS011;57332;51.320;-0.580;2024-01-25T06:56:21;3.90;;;1.17;;
69991;SDS011;57332;51.320;-0.580;2024-01-25T06:58:48;10.63;;;1.55;;
69991;SDS011;57332;51.320;-0.580;2024-01-25T07:01:20;4.95;;;1.25;;
69991;SDS011;57332;51.320;-0.580;2024-01-25T07:03:48;5.78;;;1.10;;
69991;SDS011;57332;51.320;-0.580;2024-01-25T07:06:18;5.68;;;1.00;;
69991;SDS011;57332;51.320;-0.580;2024-01-25T07:08:45;4.75;;;1.02;;
69991;SDS011;57332;51.320;-0.580;2024-01-25T07:11:12;8.80;;;1.30;;
69991;SDS011;57332;51.320;-0.580;2024-01-25T07:13:40;3.95;;;0.93;;
69991;SDS011;57332;51.320;-0.580;2024-01-25T07:16:07;5.00;;;1.10;;
69991;SDS011;57332;51.320;-0.580;2024-01-25T07:18:34;3.92;;;0.95;;
69991;SDS011;57332;51.320;-0.580;2024-01-25T07:21:02;7.03;;;1.25;;
69991;SDS011;57332;51.320;-0.580;2024-01-25T07:23:29;2.67;;;0.90;;
69991;SDS011;57332;51.320;-0.580;2024-01-25T07:25:56;7.15;;;1.10;;
69991;SDS011;57332;51.320;-0.580;2024-01-25T07:28:23;9.48;;;1.30;;
69991;SDS011;57332;51.320;-0.580;2024-01-25T07:30:51;6.85;;;1.48;;
69991;SDS011;57332;51.320;-0.580;2024-01-25T07:33:18;4.50;;;1.08;;
69991;SDS011;57332;51.320;-0.580;2024-01-25T07:35:45;4.60;;;1.30;;
69991;SDS011;57332;51.320;-0.580;2024-01-25T07:38:14;6.10;;;1.00;;
69991;SDS011;57332;51.320;-0.580;2024-01-25T07:40:42;4.10;;;0.82;;
69991;SDS011;57332;51.320;-0.580;2024-01-25T07:43:09;2.05;;;0.77;;
69991;SDS011;57332;51.320;-0.580;2024-01-25T07:45:36;3.03;;;1.00;;
69991;SDS011;57332;51.320;-0.580;2024-01-25T07:48:04;2.90;;;0.88;;
69991;SDS011;57332;51.320;-0.580;2024-01-25T07:50:40;1.38;;;0.57;;
69991;SDS011;57332;51.320;-0.580;2024-01-25T07:53:08;2.42;;;1.10;;
69991;SDS011;57332;51.320;-0.580;2024-01-25T07:55:35;1.77;;;0.77;;
69991;SDS011;57332;51.320;-0.580;2024-01-25T07:58:02;3.30;;;1.27;;
69991;SDS011;57332;51.320;-0.580;2024-01-25T08:00:29;4.13;;;0.70;;
69991;SDS011;57332;51.320;-0.580;2024-01-25T08:02:56;1.25;;;0.60;;
69991;SDS011;57332;51.320;-0.580;2024-01-25T08:05:23;1.77;;;0.82;;
69991;SDS011;57332;51.320;-0.580;2024-01-25T08:08:03;2.72;;;0.70;;
69991;SDS011;57332;51.320;-0.580;2024-01-25T08:10:30;2.17;;;0.82;;
69991;SDS011;57332;51.320;-0.580;2024-01-25T08:12:57;1.73;;;0.70;;
69991;SDS011;57332;51.320;-0.580;2024-01-25T08:15:33;1.55;;;0.80;;
69991;SDS011;57332;51.320;-0.580;2024-01-25T08:18:00;2.35;;;0.93;;
69991;SDS011;57332;51.320;-0.580;2024-01-25T08:20:28;2.67;;;1.20;;
69991;SDS011;57332;51.320;-0.580;2024-01-25T08:22:55;3.10;;;1.30;;
69991;SDS011;57332;51.320;-0.580;2024-01-25T08:25:22;5.97;;;1.70;;
69991;SDS011;57332;51.320;-0.580;2024-01-25T08:27:50;3.80;;;1.27;;
69991;SDS011;57332;51.320;-0.580;2024-01-25T08:30:17;3.20;;;1.27;;
69991;SDS011;57332;51.320;-0.580;2024-01-25T08:32:44;5.47;;;1.40;;
69991;SDS011;57332;51.320;-0.580;2024-01-25T08:35:11;4.13;;;1.23;;
69991;SDS011;57332;51.320;-0.580;2024-01-25T08:37:39;3.28;;;1.40;;
69991;SDS011;57332;51.320;-0.580;2024-01-25T08:40:07;3.85;;;1.50;;
69991;SDS011;57332;51.320;-0.580;2024-01-25T08:42:34;5.22;;;1.50;;
69991;SDS011;57332;51.320;-0.580;2024-01-25T08:45:01;3.83;;;1.25;;
69991;SDS011;57332;51.320;-0.580;2024-01-25T08:47:28;4.63;;;1.80;;
69991;SDS011;57332;51.320;-0.580;2024-01-25T08:49:55;5.75;;;1.77;;
69991;SDS011;57332;51.320;-0.580;2024-01-25T08:52:22;4.97;;;1.60;;
69991;SDS011;57332;51.320;-0.580;2024-01-25T08:54:49;5.68;;;1.60;;
69991;SDS011;57332;51.320;-0.580;2024-01-25T08:57:16;5.18;;;1.63;;
69991;SDS011;57332;51.320;-0.580;2024-01-25T08:59:44;6.57;;;1.80;;
69991;SDS011;57332;51.320;-0.580;2024-01-25T09:02:11;3.70;;;1.58;;
69991;SDS011;57332;51.320;-0.580;2024-01-25T09:04:38;7.80;;;1.80;;
69991;SDS011;57332;51.320;-0.580;2024-01-25T09:07:07;3.78;;;1.80;;
69991;SDS011;57332;51.320;-0.580;2024-01-25T09:09:34;3.65;;;1.60;;
69991;SDS011;57332;51.320;-0.580;2024-01-25T09:12:03;5.32;;;1.58;;
69991;SDS011;57332;51.320;-0.580;2024-01-25T09:14:30;4.05;;;1.45;;
69991;SDS011;57332;51.320;-0.580;2024-01-25T09:16:58;4.80;;;1.45;;
69991;SDS011;57332;51.320;-0.580;2024-01-25T09:19:25;5.78;;;1.65;;
69991;SDS011;57332;51.320;-0.580;2024-01-25T09:21:52;4.20;;;1.80;;
69991;SDS011;57332;51.320;-0.580;2024-01-25T09:24:20;6.85;;;1.92;;
69991;SDS011;57332;51.320;-0.580;2024-01-25T09:26:46;7.30;;;1.98;;
69991;SDS011;57332;51.320;-0.580;2024-01-25T09:29:13;4.22;;;1.95;;
69991;SDS011;57332;51.320;-0.580;2024-01-25T09:31:40;5.97;;;2.00;;
69991;SDS011;57332;51.320;-0.580;2024-01-25T09:34:07;5.88;;;2.08;;
69991;SDS011;57332;51.320;-0.580;2024-01-25T09:36:35;5.95;;;2.30;;
69991;SDS011;57332;51.320;-0.580;2024-01-25T09:39:02;6.20;;;2.25;;
69991;SDS011;57332;51.320;-0.580;2024-01-25T09:41:30;10.48;;;2.42;;
69991;SDS011;57332;51.320;-0.580;2024-01-25T09:43:58;9.93;;;2.50;;
69991;SDS011;57332;51.320;-0.580;2024-01-25T09:46:25;8.27;;;2.30;;
69991;SDS011;57332;51.320;-0.580;2024-01-25T09:48:53;8.98;;;3.00;;
69991;SDS011;57332;51.320;-0.580;2024-01-25T09:51:20;10.43;;;3.00;;
69991;SDS011;57332;51.320;-0.580;2024-01-25T09:53:48;8.20;;;2.72;;
69991;SDS011;57332;51.320;-0.580;2024-01-25T09:56:16;8.20;;;2.33;;
69991;SDS011;57332;51.320;-0.580;2024-01-25T09:58:44;12.88;;;3.10;;
69991;SDS011;57332;51.320;-0.580;2024-01-25T10:01:14;8.18;;;2.50;;
69991;SDS011;57332;51.320;-0.580;2024-01-25T10:03:45;13.18;;;3.08;;
69991;SDS011;57332;51.320;-0.580;2024-01-25T10:06:13;8.88;;;2.50;;
69991;SDS011;57332;51.320;-0.580;2024-01-25T10:08:41;6.78;;;2.20;;
69991;SDS011;57332;51.320;-0.580;2024-01-25T10:11:08;7.57;;;2.47;;
69991;SDS011;57332;51.320;-0.580;2024-01-25T10:13:41;13.43;;;2.42;;
69991;SDS011;57332;51.320;-0.580;2024-01-25T10:16:12;8.82;;;2.63;;
69991;SDS011;57332;51.320;-0.580;2024-01-25T10:18:42;9.25;;;2.35;;
69991;SDS011;57332;51.320;-0.580;2024-01-25T10:21:10;8.65;;;2.33;;
69991;SDS011;57332;51.320;-0.580;2024-01-25T10:23:38;9.65;;;2.53;;
69991;SDS011;57332;51.320;-0.580;2024-01-25T10:26:07;9.30;;;2.58;;
69991;SDS011;57332;51.320;-0.580;2024-01-25T10:28:34;9.63;;;2.65;;
69991;SDS011;57332;51.320;-0.580;2024-01-25T10:31:02;10.23;;;3.10;;
69991;SDS011;57332;51.320;-0.580;2024-01-25T10:33:31;7.65;;;2.75;;
69991;SDS011;57332;51.320;-0.580;2024-01-25T10:36:01;13.25;;;3.15;;
69991;SDS011;57332;51.320;-0.580;2024-01-25T10:38:31;9.30;;;2.97;;
69991;SDS011;57332;51.320;-0.580;2024-01-25T10:40:59;11.45;;;3.20;;
69991;SDS011;57332;51.320;-0.580;2024-01-25T10:43:27;8.90;;;3.15;;
69991;SDS011;57332;51.320;-0.580;2024-01-25T10:45:57;19.30;;;3.03;;
69991;SDS011;57332;51.320;-0.580;2024-01-25T10:48:28;13.10;;;3.08;;
69991;SDS011;57332;51.320;-0.580;2024-01-25T10:50:56;10.30;;;2.95;;
69991;SDS011;57332;51.320;-0.580;2024-01-25T10:53:23;7.18;;;2.58;;
69991;SDS011;57332;51.320;-0.580;2024-01-25T10:55:50;8.15;;;2.92;;
69991;SDS011;57332;51.320;-0.580;2024-01-25T10:58:17;11.07;;;2.47;;
69991;SDS011;57332;51.320;-0.580;2024-01-25T11:00:51;8.93;;;3.25;;
69991;SDS011;57332;51.320;-0.580;2024-01-25T11:03:19;9.07;;;2.90;;
69991;SDS011;57332;51.320;-0.580;2024-01-25T11:05:46;8.73;;;2.78;;
69991;SDS011;57332;51.320;-0.580;2024-01-25T11:08:18;9.73;;;3.05;;
69991;SDS011;57332;51.320;-0.580;2024-01-25T11:10:51;9.98;;;2.60;;
69991;SDS011;57332;51.320;-0.580;2024-01-25T11:13:28;12.60;;;2.60;;
69991;SDS011;57332;51.320;-0.580;2024-01-25T11:15:56;8.02;;;2.78;;
69991;SDS011;57332;51.320;-0.580;2024-01-25T11:18:26;7.65;;;2.47;;
69991;SDS011;57332;51.320;-0.580;2024-01-25T11:20:53;8.05;;;2.25;;
69991;SDS011;57332;51.320;-0.580;2024-01-25T11:23:20;9.43;;;2.80;;
69991;SDS011;57332;51.320;-0.580;2024-01-25T11:25:47;6.63;;;2.15;;
69991;SDS011;57332;51.320;-0.580;2024-01-25T11:28:15;9.50;;;2.00;;
69991;SDS011;57332;51.320;-0.580;2024-01-25T11:30:45;7.40;;;1.95;;
69991;SDS011;57332;51.320;-0.580;2024-01-25T11:33:14;9.95;;;2.28;;
69991;SDS011;57332;51.320;-0.580;2024-01-25T11:35:41;7.05;;;2.40;;
69991;SDS011;57332;51.320;-0.580;2024-01-25T11:38:09;8.25;;;2.00;;
69991;SDS011;57332;51.320;-0.580;2024-01-25T11:40:36;6.80;;;2.67;;
69991;SDS011;57332;51.320;-0.580;2024-01-25T11:43:04;8.43;;;2.45;;
69991;SDS011;57332;51.320;-0.580;2024-01-25T11:45:37;6.50;;;2.20;;
69991;SDS011;57332;51.320;-0.580;2024-01-25T11:48:10;9.20;;;2.00;;
69991;SDS011;57332;51.320;-0.580;2024-01-25T11:50:38;10.15;;;2.33;;
69991;SDS011;57332;51.320;-0.580;2024-01-25T11:53:05;8.30;;;1.70;;
69991;SDS011;57332;51.320;-0.580;2024-01-25T11:55:32;5.55;;;2.00;;
69991;SDS011;57332;51.320;-0.580;2024-01-25T11:57:59;7.55;;;2.17;;
69991;SDS011;57332;51.320;-0.580;2024-01-25T12:00:26;12.18;;;2.30;;
69991;SDS011;57332;51.320;-0.580;2024-01-25T12:02:53;9.68;;;3.05;;
69991;SDS011;57332;51.320;-0.580;2024-01-25T12:05:21;8.85;;;2.05;;
69991;SDS011;57332;51.320;-0.580;2024-01-25T12:07:48;5.95;;;1.98;;
69991;SDS011;57332;51.320;-0.580;2024-01-25T12:10:16;5.32;;;1.77;;
69991;SDS011;57332;51.320;-0.580;2024-01-25T12:12:44;6.97;;;1.63;;
69991;SDS011;57332;51.320;-0.580;2024-01-25T12:15:11;6.85;;;1.67;;
69991;SDS011;57332;51.320;-0.580;2024-01-25T12:17:39;5.80;;;1.45;;
69991;SDS011;57332;51.320;-0.580;2024-01-25T12:20:07;7.05;;;1.48;;
69991;SDS011;57332;51.320;-0.580;2024-01-25T12:22:38;8.88;;;1.80;;
69991;SDS011;57332;51.320;-0.580;2024-01-25T12:25:08;7.97;;;2.25;;
69991;SDS011;57332;51.320;-0.580;2024-01-25T12:27:40;8.18;;;2.08;;
69991;SDS011;57332;51.320;-0.580;2024-01-25T12:30:13;8.82;;;2.10;;
69991;SDS011;57332;51.320;-0.580;2024-01-25T12:32:40;11.88;;;2.30;;
69991;SDS011;57332;51.320;-0.580;2024-01-25T12:35:07;12.68;;;2.53;;
69991;SDS011;57332;51.320;-0.580;2024-01-25T12:37:35;8.85;;;2.53;;
69991;SDS011;57332;51.320;-0.580;2024-01-25T12:40:03;6.65;;;2.63;;
69991;SDS011;57332;51.320;-0.580;2024-01-25T12:42:30;7.35;;;2.58;;
69991;SDS011;57332;51.320;-0.580;2024-01-25T12:44:57;7.10;;;2.83;;
69991;SDS011;57332;51.320;-0.580;2024-01-25T12:47:25;8.20;;;2.85;;
69991;SDS011;57332;51.320;-0.580;2024-01-25T12:49:52;11.48;;;2.42;;
69991;SDS011;57332;51.320;-0.580;2024-01-25T12:52:19;10.02;;;2.40;;
69991;SDS011;57332;51.320;-0.580;2024-01-25T12:54:47;9.50;;;2.22;;
69991;SDS011;57332;51.320;-0.580;2024-01-25T12:57:14;5.75;;;2.20;;
69991;SDS011;57332;51.320;-0.580;2024-01-25T12:59:41;8.73;;;2.00;;
69991;SDS011;57332;51.320;-0.580;2024-01-25T13:02:08;5.32;;;1.92;;
69991;SDS011;57332;51.320;-0.580;2024-01-25T13:04:35;4.25;;;1.48;;
69991;SDS011;57332;51.320;-0.580;2024-01-25T13:07:04;4.93;;;1.60;;
69991;SDS011;57332;51.320;-0.580;2024-01-25T13:09:31;5.93;;;1.60;;
69991;SDS011;57332;51.320;-0.580;2024-01-25T13:12:00;8.55;;;2.03;;
69991;SDS011;57332;51.320;-0.580;2024-01-25T13:14:28;7.22;;;1.90;;
69991;SDS011;57332;51.320;-0.580;2024-01-25T13:16:54;6.60;;;1.60;;
69991;SDS011;57332;51.320;-0.580;2024-01-25T13:19:21;4.53;;;1.63;;
69991;SDS011;57332;51.320;-0.580;2024-01-25T13:21:50;5.65;;;1.95;;
69991;SDS011;57332;51.320;-0.580;2024-01-25T13:24:18;8.38;;;1.70;;
69991;SDS011;57332;51.320;-0.580;2024-01-25T13:26:45;5.70;;;1.70;;
69991;SDS011;57332;51.320;-0.580;2024-01-25T13:29:12;6.47;;;1.67;;
69991;SDS011;57332;51.320;-0.580;2024-01-25T13:31:40;6.00;;;1.83;;
69991;SDS011;57332;51.320;-0.580;2024-01-25T13:34:07;6.00;;;1.80;;
69991;SDS011;57332;51.320;-0.580;2024-01-25T13:36:34;6.68;;;1.77;;
69991;SDS011;57332;51.320;-0.580;2024-01-25T13:39:01;5.05;;;1.67;;
69991;SDS011;57332;51.320;-0.580;2024-01-25T13:41:28;3.92;;;1.38;;
69991;SDS011;57332;51.320;-0.580;2024-01-25T13:43:55;6.75;;;2.00;;
69991;SDS011;57332;51.320;-0.580;2024-01-25T13:46:22;4.93;;;2.10;;
69991;SDS011;57332;51.320;-0.580;2024-01-25T13:48:52;5.88;;;1.67;;
69991;SDS011;57332;51.320;-0.580;2024-01-25T13:51:19;5.88;;;1.60;;
69991;SDS011;57332;51.320;-0.580;2024-01-25T13:53:45;7.13;;;1.70;;
69991;SDS011;57332;51.320;-0.580;2024-01-25T13:56:14;5.38;;;2.10;;
69991;SDS011;57332;51.320;-0.580;2024-01-25T13:58:41;7.68;;;2.30;;
69991;SDS011;57332;51.320;-0.580;2024-01-25T14:01:08;5.30;;;2.05;;
69991;SDS011;57332;51.320;-0.580;2024-01-25T14:03:35;5.78;;;1.92;;
69991;SDS011;57332;51.320;-0.580;2024-01-25T14:06:03;3.78;;;1.42;;
69991;SDS011;57332;51.320;-0.580;2024-01-25T14:08:31;6.13;;;1.42;;
69991;SDS011;57332;51.320;-0.580;2024-01-25T14:10:58;3.97;;;1.20;;
69991;SDS011;57332;51.320;-0.580;2024-01-25T14:13:26;4.47;;;1.40;;
69991;SDS011;57332;51.320;-0.580;2024-01-25T14:15:53;4.35;;;1.20;;
69991;SDS011;57332;51.320;-0.580;2024-01-25T14:18:20;7.07;;;1.25;;
69991;SDS011;57332;51.320;-0.580;2024-01-25T14:20:47;2.42;;;0.93;;
69991;SDS011;57332;51.320;-0.580;2024-01-25T14:23:14;4.10;;;1.20;;
69991;SDS011;57332;51.320;-0.580;2024-01-25T14:25:41;6.05;;;1.10;;
69991;SDS011;57332;51.320;-0.580;2024-01-25T14:28:08;5.13;;;1.45;;
69991;SDS011;57332;51.320;-0.580;2024-01-25T14:30:35;5.47;;;1.52;;